KMLJ/MLJ METAR and TAF weather

Enter ICAO airport designator
Station Type Date Time Source
KMLJ METAR 2020/02/29 03:35 UTC NOAA

KMLJ 290335Z AUTO 33006KT 10SM CLR 08/01 A3017 RMK AO2


Station Type Date Time Source
KMLJ Decoded METAR 2020/02/29 03:35 UTC NOAA

Milledgeville, Baldwin County Airport, GA, United States (KMLJ) 33-09-15N 083-14-26W
Feb 28, 2020 - 10:35 PM EST / 2020.02.29 0335 UTC
Wind: from the NNW (330 degrees) at 7 MPH (6 KT):0
Visibility: 10 mile(s):0
Sky conditions: clear
Temperature: 46 F (8 C)
Dew Point: 33 F (1 C)
Relative Humidity: 61%
Pressure (altimeter): 30.17 in. Hg (1021 hPa)
ob: KMLJ 290335Z AUTO 33006KT 10SM CLR 08/01 A3017 RMK AO2
cycle: 3

Station Type Date Time Source
KMLJ TAF UTC NOAA

Error!

Example: see airport list